createdAt,value
2023-03-20T00:01:58.443Z,2.03
2023-03-20T00:04:26.001Z,2.10
2023-03-20T00:06:52.495Z,2.60
2023-03-20T00:09:18.926Z,2.47
2023-03-20T00:11:50.474Z,2.47
2023-03-20T00:14:19.181Z,3.50
2023-03-20T00:16:47.489Z,2.50
2023-03-20T00:19:19.586Z,2.63
2023-03-20T00:21:47.923Z,2.67
2023-03-20T00:24:15.321Z,2.58
2023-03-20T00:26:43.269Z,4.82
2023-03-20T00:29:22.757Z,2.13
2023-03-20T00:31:49.617Z,2.50
2023-03-20T00:34:17.678Z,2.53
2023-03-20T00:36:44.108Z,2.35
2023-03-20T00:39:10.850Z,2.60
2023-03-20T00:42:01.675Z,2.20
2023-03-20T00:44:34.658Z,2.78
2023-03-20T00:47:03.662Z,2.78
2023-03-20T00:49:33.264Z,2.97
2023-03-20T00:52:01.293Z,2.53
2023-03-20T00:54:28.137Z,2.17
2023-03-20T00:57:16.188Z,2.20
2023-03-20T00:59:51.935Z,2.70
2023-03-20T01:02:18.503Z,2.05
2023-03-20T01:04:44.960Z,2.88
2023-03-20T01:07:14.436Z,2.83
2023-03-20T01:09:41.650Z,4.22
2023-03-20T01:12:10.963Z,3.83
2023-03-20T01:14:37.377Z,3.92
2023-03-20T01:17:03.850Z,3.42
2023-03-20T01:19:30.363Z,4.22
2023-03-20T01:21:56.790Z,4.72
2023-03-20T01:24:23.236Z,3.83
2023-03-20T01:26:51.683Z,3.75
2023-03-20T01:29:24.020Z,4.13
2023-03-20T01:31:51.637Z,4.53
2023-03-20T01:34:18.689Z,4.63
2023-03-20T01:36:51.877Z,4.93
2023-03-20T01:39:21.623Z,3.83
2023-03-20T01:41:48.542Z,3.78
2023-03-20T01:44:23.769Z,3.67
2023-03-20T01:46:52.604Z,3.40
2023-03-20T01:49:18.923Z,3.47
2023-03-20T01:51:46.056Z,4.28
2023-03-20T01:54:19.135Z,3.50
2023-03-20T01:57:08.494Z,4.00
2023-03-20T01:59:34.819Z,4.03
2023-03-20T02:02:01.506Z,4.05
2023-03-20T02:04:34.747Z,5.95
2023-03-20T02:07:01.353Z,3.60
2023-03-20T02:09:27.809Z,3.50
2023-03-20T02:11:54.682Z,3.97
2023-03-20T02:14:22.228Z,3.85
2023-03-20T02:16:48.814Z,4.03
2023-03-20T02:19:23.920Z,6.15
2023-03-20T02:22:23.223Z,4.05
2023-03-20T02:24:54.969Z,6.03
2023-03-20T02:27:51.384Z,4.25
2023-03-20T02:30:43.058Z,5.80
2023-03-20T02:33:33.911Z,4.72
2023-03-20T02:36:33.694Z,4.97
2023-03-20T02:39:26.507Z,4.70
2023-03-20T02:42:13.814Z,4.05
2023-03-20T02:45:13.510Z,4.43
2023-03-20T02:47:51.322Z,4.55
2023-03-20T02:50:23.717Z,4.70
2023-03-20T02:53:10.546Z,4.97
2023-03-20T02:55:46.986Z,5.00
2023-03-20T02:58:26.603Z,6.65
2023-03-20T03:01:23.268Z,5.13
2023-03-20T03:04:22.390Z,6.20
2023-03-20T03:06:51.701Z,7.10
2023-03-20T03:09:33.433Z,6.00
2023-03-20T03:12:03.463Z,5.80
2023-03-20T03:14:36.006Z,6.10
2023-03-20T03:17:04.403Z,6.13
2023-03-20T03:19:32.084Z,8.27
2023-03-20T03:21:58.480Z,7.15
2023-03-20T03:24:41.436Z,7.85
2023-03-20T03:27:14.967Z,9.25
2023-03-20T03:29:42.304Z,8.77
2023-03-20T03:32:31.932Z,9.82
2023-03-20T03:34:59.099Z,10.80
2023-03-20T03:37:41.396Z,13.95
2023-03-20T03:40:33.861Z,12.55
2023-03-20T03:43:11.619Z,13.75
2023-03-20T03:45:55.792Z,12.02
2023-03-20T03:48:31.200Z,13.77
2023-03-20T03:51:01.601Z,18.30
2023-03-20T03:53:32.549Z,17.92
2023-03-20T03:56:02.364Z,21.00
2023-03-20T03:58:42.051Z,22.75
2023-03-20T04:01:13.512Z,23.17
2023-03-20T04:03:43.718Z,24.48
2023-03-20T04:06:12.442Z,28.20
2023-03-20T04:08:41.893Z,26.42
2023-03-20T04:11:19.376Z,30.05
2023-03-20T04:13:50.569Z,30.60
2023-03-20T04:16:18.314Z,32.80
2023-03-20T04:18:45.228Z,32.85
2023-03-20T04:21:12.124Z,34.80
2023-03-20T04:23:38.534Z,33.97
2023-03-20T04:26:06.016Z,30.15
2023-03-20T04:28:32.416Z,33.03
2023-03-20T04:31:00.831Z,27.60
2023-03-20T04:33:28.644Z,28.02
2023-03-20T04:35:56.630Z,30.27
2023-03-20T04:38:24.066Z,25.65
2023-03-20T04:40:50.588Z,22.77
2023-03-20T04:43:17.338Z,22.63
2023-03-20T04:45:43.794Z,24.30
2023-03-20T04:48:10.598Z,22.63
2023-03-20T04:50:37.080Z,25.63
2023-03-20T04:53:03.531Z,21.20
2023-03-20T04:55:29.935Z,23.27
2023-03-20T04:57:56.424Z,21.02
2023-03-20T05:00:22.938Z,22.70
2023-03-20T05:02:49.439Z,25.13
2023-03-20T05:05:15.888Z,22.63
2023-03-20T05:07:42.307Z,22.42
2023-03-20T05:10:09.122Z,25.40
2023-03-20T05:12:35.827Z,28.67
2023-03-20T05:15:02.248Z,23.02
2023-03-20T05:17:28.677Z,26.35
2023-03-20T05:19:55.092Z,25.55
2023-03-20T05:22:21.496Z,24.77
2023-03-20T05:24:47.976Z,28.52
2023-03-20T05:27:14.397Z,29.17
2023-03-20T05:29:40.972Z,26.35
2023-03-20T05:32:07.427Z,27.67
2023-03-20T05:34:33.866Z,26.63
2023-03-20T05:37:00.454Z,25.02
2023-03-20T05:39:26.872Z,25.45
2023-03-20T05:41:53.506Z,27.00
2023-03-20T05:44:19.918Z,24.10
2023-03-20T05:46:46.355Z,25.42
2023-03-20T05:49:12.763Z,25.30
2023-03-20T05:51:39.195Z,22.55
2023-03-20T05:54:05.746Z,21.15
2023-03-20T05:56:32.225Z,23.30
2023-03-20T05:58:58.664Z,22.75
2023-03-20T06:01:25.201Z,22.83
2023-03-20T06:03:51.760Z,22.08
2023-03-20T06:06:18.261Z,24.95
2023-03-20T06:08:44.661Z,24.05
2023-03-20T06:11:11.748Z,26.45
2023-03-20T06:13:38.174Z,22.02
2023-03-20T06:16:04.990Z,23.25
2023-03-20T06:18:31.614Z,27.50
2023-03-20T06:20:58.191Z,28.77
2023-03-20T06:23:24.647Z,25.60
2023-03-20T06:25:51.254Z,28.60
2023-03-20T06:28:17.676Z,29.15
2023-03-20T06:30:44.642Z,28.45
2023-03-20T06:33:11.367Z,27.92
2023-03-20T06:35:38.563Z,27.50
2023-03-20T06:38:05.365Z,30.33
2023-03-20T06:40:31.933Z,30.40
2023-03-20T06:42:58.401Z,27.30
2023-03-20T06:45:24.877Z,27.90
2023-03-20T06:47:51.398Z,27.80
2023-03-20T06:50:17.909Z,28.10
2023-03-20T06:52:44.894Z,27.17
2023-03-20T06:55:11.504Z,26.42
2023-03-20T06:57:38.668Z,24.23
2023-03-20T07:00:06.458Z,25.50
2023-03-20T07:02:33.410Z,25.45
2023-03-20T07:04:59.988Z,24.38
2023-03-20T07:07:27.220Z,25.67
2023-03-20T07:09:53.751Z,26.40
2023-03-20T07:12:20.421Z,25.00
2023-03-20T07:14:46.968Z,27.23
2023-03-20T07:17:13.564Z,23.33
2023-03-20T07:19:40.158Z,26.98
2023-03-20T07:22:08.596Z,23.98
2023-03-20T07:24:35.244Z,26.80
2023-03-20T07:27:01.792Z,24.23
2023-03-20T07:29:28.257Z,26.67
2023-03-20T07:31:54.834Z,23.67
2023-03-20T07:34:21.307Z,25.30
2023-03-20T07:36:47.809Z,23.67
2023-03-20T07:39:14.432Z,22.90
2023-03-20T07:41:40.929Z,23.10
2023-03-20T07:44:08.430Z,22.42
2023-03-20T07:46:34.961Z,22.38
2023-03-20T07:49:01.457Z,23.15
2023-03-20T07:51:27.933Z,26.55
2023-03-20T07:53:55.569Z,21.33
2023-03-20T07:56:22.377Z,22.88
2023-03-20T07:58:48.829Z,22.30
2023-03-20T08:01:15.395Z,21.95
2023-03-20T08:03:41.946Z,21.10
2023-03-20T08:06:09.760Z,23.60
2023-03-20T08:08:36.591Z,26.52
2023-03-20T08:11:03.103Z,21.55
2023-03-20T08:13:29.594Z,23.35
2023-03-20T08:15:56.043Z,21.55
2023-03-20T08:18:22.628Z,21.98
2023-03-20T08:20:50.285Z,21.85
2023-03-20T08:23:20.098Z,22.02
2023-03-20T08:25:50.663Z,23.90
2023-03-20T08:28:17.357Z,22.40
2023-03-20T08:30:44.150Z,24.80
2023-03-20T08:33:11.192Z,24.05
2023-03-20T08:35:38.043Z,22.10
2023-03-20T08:38:04.823Z,20.58
2023-03-20T08:40:31.436Z,23.83
2023-03-20T08:42:57.980Z,22.30
2023-03-20T08:45:26.220Z,20.98
2023-03-20T08:47:53.130Z,20.13
2023-03-20T08:50:19.700Z,25.77
2023-03-20T08:52:47.140Z,22.40
2023-03-20T08:55:15.870Z,24.42
2023-03-20T08:57:42.648Z,21.92
2023-03-20T09:00:12.106Z,22.02
2023-03-20T09:02:38.740Z,21.55
2023-03-20T09:05:06.075Z,25.63
2023-03-20T09:07:32.526Z,24.88
2023-03-20T09:09:59.047Z,24.95
2023-03-20T09:12:25.621Z,21.73
2023-03-20T09:14:52.148Z,22.67
2023-03-20T09:17:18.812Z,22.20
2023-03-20T09:19:45.479Z,22.60
2023-03-20T09:22:13.682Z,22.55
2023-03-20T09:24:40.176Z,30.77
2023-03-20T09:27:06.815Z,25.52
2023-03-20T09:29:33.270Z,26.60
2023-03-20T09:31:59.772Z,28.90
2023-03-20T09:34:26.255Z,28.27
2023-03-20T09:36:53.048Z,25.25
2023-03-20T09:39:19.533Z,26.05
2023-03-20T09:41:57.091Z,29.75
2023-03-20T09:44:59.618Z,28.05
2023-03-20T09:48:18.860Z,24.20
2023-03-20T09:51:22.980Z,24.70
2023-03-20T09:54:01.314Z,23.98
2023-03-20T09:56:29.974Z,25.00
2023-03-20T09:59:01.907Z,24.23
2023-03-20T10:01:39.051Z,25.23
2023-03-20T10:04:10.475Z,24.90
2023-03-20T10:06:37.196Z,26.30
2023-03-20T10:09:12.532Z,26.77
2023-03-20T10:11:41.934Z,25.58
2023-03-20T10:14:35.698Z,27.73
2023-03-20T10:17:31.602Z,22.52
2023-03-20T10:20:01.165Z,26.75
2023-03-20T10:22:36.652Z,25.48
2023-03-20T10:25:08.882Z,24.88
2023-03-20T10:27:41.211Z,27.15
2023-03-20T10:30:26.534Z,29.48
2023-03-20T10:33:11.843Z,28.77
2023-03-20T10:35:43.795Z,26.13
2023-03-20T10:38:37.575Z,24.77
2023-03-20T10:41:05.220Z,27.27
2023-03-20T10:43:38.186Z,26.02
2023-03-20T10:46:10.485Z,23.88
2023-03-20T10:48:39.452Z,25.20
2023-03-20T10:51:16.716Z,24.35
2023-03-20T10:53:47.700Z,26.02
2023-03-20T10:56:20.083Z,25.65
2023-03-20T10:58:48.581Z,24.00
2023-03-20T11:01:15.235Z,26.65
2023-03-20T11:03:41.981Z,23.80
2023-03-20T11:06:21.886Z,24.30
2023-03-20T11:08:51.343Z,24.38
2023-03-20T11:11:26.537Z,24.15
2023-03-20T11:13:53.054Z,24.80
2023-03-20T11:16:25.225Z,22.98
2023-03-20T11:18:53.933Z,26.55
2023-03-20T11:21:23.858Z,21.67
2023-03-20T11:23:51.376Z,24.05
2023-03-20T11:26:20.890Z,25.48
2023-03-20T11:28:50.618Z,24.17
2023-03-20T11:31:20.477Z,25.63
2023-03-20T11:33:52.804Z,24.35
2023-03-20T11:36:30.546Z,26.13
2023-03-20T11:39:16.814Z,26.00
2023-03-20T11:41:54.598Z,28.55
2023-03-20T11:44:33.910Z,28.25
2023-03-20T11:47:08.005Z,27.98
2023-03-20T11:49:47.766Z,27.38
2023-03-20T11:52:15.749Z,27.65
2023-03-20T11:54:50.744Z,27.75
2023-03-20T11:57:36.859Z,28.35
2023-03-20T12:00:18.118Z,25.83
2023-03-20T12:02:44.998Z,26.40
2023-03-20T12:05:18.948Z,26.60
2023-03-20T12:07:46.915Z,29.17
2023-03-20T12:10:14.375Z,27.73
2023-03-20T12:12:45.762Z,27.42
2023-03-20T12:15:27.056Z,28.38
2023-03-20T12:18:01.388Z,28.50
2023-03-20T12:20:44.768Z,27.85
2023-03-20T12:23:35.784Z,29.27
2023-03-20T12:26:54.619Z,25.50
2023-03-20T12:29:31.575Z,30.30
2023-03-20T12:32:07.149Z,26.33
2023-03-20T12:34:47.089Z,28.65
2023-03-20T12:37:14.303Z,32.75
2023-03-20T12:39:48.804Z,29.75
2023-03-20T12:42:37.097Z,29.58
2023-03-20T12:45:22.173Z,30.42
2023-03-20T12:47:57.762Z,31.70
2023-03-20T12:50:38.449Z,28.75
2023-03-20T12:53:35.766Z,31.20
2023-03-20T12:56:25.798Z,26.38
2023-03-20T12:59:08.300Z,29.27
2023-03-20T13:01:53.540Z,28.13
2023-03-20T13:04:36.454Z,26.83
2023-03-20T13:07:07.637Z,27.70
2023-03-20T13:09:52.184Z,30.35
2023-03-20T13:12:21.696Z,25.08
2023-03-20T13:15:01.170Z,22.48
2023-03-20T13:17:38.671Z,24.58
2023-03-20T13:20:23.339Z,20.88
2023-03-20T13:23:27.572Z,24.00
2023-03-20T13:26:14.109Z,20.70
2023-03-20T13:28:56.081Z,20.50
2023-03-20T13:31:43.786Z,22.52
2023-03-20T13:34:21.524Z,20.35
2023-03-20T13:37:16.083Z,16.48
2023-03-20T13:39:58.794Z,19.33
2023-03-20T13:42:29.908Z,18.63
2023-03-20T13:45:01.721Z,16.58
2023-03-20T13:47:28.929Z,18.38
2023-03-20T13:50:22.845Z,17.90
2023-03-20T13:52:55.428Z,19.67
2023-03-20T13:55:53.055Z,18.48
2023-03-20T13:58:32.524Z,15.18
2023-03-20T14:01:04.851Z,14.82
2023-03-20T14:03:39.057Z,15.57
2023-03-20T14:06:39.362Z,16.30
2023-03-20T14:09:25.320Z,14.30
2023-03-20T14:11:53.930Z,13.88
2023-03-20T14:14:46.197Z,14.45
2023-03-20T14:17:20.921Z,12.90
2023-03-20T14:19:48.010Z,13.30
2023-03-20T14:22:16.951Z,12.25
2023-03-20T14:24:48.749Z,12.48
2023-03-20T14:27:29.844Z,11.57
2023-03-20T14:30:31.461Z,11.45
2023-03-20T14:33:00.389Z,11.30
2023-03-20T14:35:28.369Z,10.90
2023-03-20T14:38:14.023Z,11.73
2023-03-20T14:40:49.563Z,10.73
2023-03-20T14:43:26.520Z,11.00
2023-03-20T14:46:02.308Z,12.13
2023-03-20T14:48:35.672Z,11.40
2023-03-20T14:51:20.461Z,11.55
2023-03-20T14:54:14.095Z,12.48
2023-03-20T14:56:40.593Z,12.05
2023-03-20T14:59:10.970Z,11.05
2023-03-20T15:01:46.554Z,11.23
2023-03-20T15:04:18.974Z,10.90
2023-03-20T15:06:58.078Z,11.27
2023-03-20T15:09:27.039Z,11.40
2023-03-20T15:11:53.969Z,13.75
2023-03-20T15:14:25.329Z,12.90
2023-03-20T15:16:58.622Z,10.82
2023-03-20T15:19:25.418Z,11.35
2023-03-20T15:21:53.675Z,9.82
2023-03-20T15:24:25.520Z,10.27
2023-03-20T15:26:58.310Z,10.32
2023-03-20T15:29:24.966Z,9.50
2023-03-20T15:32:12.522Z,11.30
2023-03-20T15:34:41.060Z,9.20
2023-03-20T15:37:07.558Z,9.48
2023-03-20T15:39:43.441Z,9.07
2023-03-20T15:42:13.000Z,12.02
2023-03-20T15:44:41.762Z,10.07
2023-03-20T15:47:11.265Z,10.20
2023-03-20T15:49:42.644Z,9.38
2023-03-20T15:52:31.278Z,10.48
2023-03-20T15:54:59.276Z,9.90
2023-03-20T15:57:33.608Z,10.68
2023-03-20T16:00:02.244Z,10.38
2023-03-20T16:02:30.250Z,9.98
2023-03-20T16:04:57.032Z,10.52
2023-03-20T16:07:28.274Z,10.48
2023-03-20T16:09:55.011Z,10.13
2023-03-20T16:12:21.572Z,9.60
2023-03-20T16:14:49.388Z,9.77
2023-03-20T16:17:17.612Z,10.30
2023-03-20T16:19:45.006Z,10.27
2023-03-20T16:22:21.958Z,10.30
2023-03-20T16:24:51.758Z,9.02
2023-03-20T16:27:24.608Z,9.80
2023-03-20T16:29:52.449Z,8.70
2023-03-20T16:32:32.854Z,11.80
2023-03-20T16:35:01.414Z,9.35
2023-03-20T16:37:30.866Z,9.18
2023-03-20T16:40:16.699Z,10.90
2023-03-20T16:42:43.910Z,9.73
2023-03-20T16:45:22.506Z,9.13
2023-03-20T16:47:49.255Z,10.63
2023-03-20T16:50:23.257Z,11.48
2023-03-20T16:52:52.258Z,10.90
2023-03-20T16:55:32.446Z,10.57
2023-03-20T16:58:00.901Z,9.57
2023-03-20T17:00:30.994Z,11.35
2023-03-20T17:03:05.701Z,10.70
2023-03-20T17:05:56.915Z,9.23
2023-03-20T17:08:29.108Z,8.13
2023-03-20T17:11:00.897Z,8.25
2023-03-20T17:13:27.316Z,8.20
2023-03-20T17:15:54.256Z,7.85
2023-03-20T17:18:20.689Z,8.15
2023-03-20T17:20:47.103Z,8.35
2023-03-20T17:23:20.580Z,8.18
2023-03-20T17:25:49.015Z,7.60
2023-03-20T17:28:24.342Z,9.57
2023-03-20T17:30:51.372Z,8.93
2023-03-20T17:33:20.786Z,8.65
2023-03-20T17:35:47.883Z,8.75
2023-03-20T17:38:22.107Z,8.88
2023-03-20T17:40:49.583Z,8.65
2023-03-20T17:43:17.437Z,9.65
2023-03-20T17:45:44.579Z,8.70
2023-03-20T17:48:17.245Z,8.25
2023-03-20T17:50:45.113Z,8.23
2023-03-20T17:53:17.683Z,8.23
2023-03-20T17:55:44.411Z,7.97
2023-03-20T17:58:15.824Z,9.10
2023-03-20T18:00:42.579Z,8.45
2023-03-20T18:03:09.040Z,8.00
2023-03-20T18:05:39.375Z,9.48
2023-03-20T18:08:11.018Z,11.57
2023-03-20T18:10:37.966Z,9.45
2023-03-20T18:13:04.616Z,9.30
2023-03-20T18:15:31.164Z,10.10
2023-03-20T18:17:57.745Z,8.57
2023-03-20T18:20:30.886Z,11.05
2023-03-20T18:22:57.412Z,9.02
2023-03-20T18:25:25.935Z,8.02
2023-03-20T18:27:53.598Z,8.98
2023-03-20T18:30:23.013Z,9.25
2023-03-20T18:32:49.561Z,8.57
2023-03-20T18:35:16.397Z,9.23
2023-03-20T18:37:43.195Z,10.25
2023-03-20T18:40:26.166Z,10.63
2023-03-20T18:42:54.072Z,9.43
2023-03-20T18:45:21.813Z,9.23
2023-03-20T18:47:48.661Z,10.95
2023-03-20T18:50:19.785Z,10.20
2023-03-20T18:52:46.667Z,10.13
2023-03-20T18:55:13.127Z,10.18
2023-03-20T18:57:43.057Z,10.30
2023-03-20T19:00:39.932Z,10.43
2023-03-20T19:03:08.311Z,10.32
2023-03-20T19:05:36.022Z,10.43
2023-03-20T19:08:03.672Z,10.15
2023-03-20T19:10:39.296Z,10.43
2023-03-20T19:13:07.685Z,11.30
2023-03-20T19:15:36.375Z,11.68
2023-03-20T19:18:06.089Z,11.43
2023-03-20T19:20:39.890Z,11.40
2023-03-20T19:23:08.696Z,10.23
2023-03-20T19:25:36.314Z,11.25
2023-03-20T19:28:03.460Z,14.52
2023-03-20T19:30:40.702Z,13.13
2023-03-20T19:33:07.766Z,13.30
2023-03-20T19:38:22.181Z,13.20
2023-03-20T19:40:53.215Z,13.88
2023-03-20T19:43:23.282Z,24.00
2023-03-20T19:45:55.994Z,40.15
2023-03-20T19:48:27.207Z,40.47
2023-03-20T19:50:54.174Z,39.97
2023-03-20T19:53:27.961Z,35.60
2023-03-20T19:55:55.591Z,19.05
2023-03-20T19:58:22.454Z,18.40
2023-03-20T20:00:59.195Z,18.65
2023-03-20T20:03:26.636Z,15.55
2023-03-20T20:05:53.541Z,15.82
2023-03-20T20:08:30.037Z,15.50
2023-03-20T20:11:07.145Z,13.82
2023-03-20T20:13:43.854Z,13.18
2023-03-20T20:16:21.202Z,13.57
2023-03-20T20:18:49.788Z,13.00
2023-03-20T20:24:02.984Z,13.77
2023-03-20T20:26:31.384Z,12.43
2023-03-20T20:29:01.762Z,12.05
2023-03-20T20:31:31.841Z,12.20
2023-03-20T20:34:25.235Z,14.10
2023-03-20T20:39:31.709Z,12.90
2023-03-20T20:41:58.264Z,13.15
2023-03-20T20:44:24.804Z,13.43
2023-03-20T20:46:51.713Z,13.52
2023-03-20T20:49:20.271Z,13.80
2023-03-20T20:51:47.727Z,12.55
2023-03-20T20:54:14.668Z,12.95
2023-03-20T20:56:41.437Z,12.75
2023-03-20T20:59:08.043Z,12.20
2023-03-20T21:01:34.774Z,13.50
2023-03-20T21:04:02.346Z,12.52
2023-03-20T21:06:54.212Z,12.55
2023-03-20T21:09:15.419Z,12.27
2023-03-20T21:11:41.992Z,11.80
2023-03-20T21:14:08.882Z,12.98
2023-03-20T21:16:35.431Z,12.07
2023-03-20T21:19:07.670Z,11.23
2023-03-20T21:21:35.734Z,12.73
2023-03-20T21:24:02.520Z,9.98
2023-03-20T21:26:29.184Z,10.45
2023-03-20T21:28:55.721Z,9.80
2023-03-20T21:31:27.931Z,9.40
2023-03-20T21:33:56.607Z,9.75
2023-03-20T21:36:23.774Z,9.90
2023-03-20T21:39:08.651Z,9.80
2023-03-20T21:41:37.950Z,10.38
2023-03-20T21:44:07.666Z,11.70
2023-03-20T21:55:40.690Z,10.10
2023-03-20T22:03:40.000Z,10.43
2023-03-20T22:15:11.898Z,10.77
2023-03-20T22:20:42.247Z,9.88
2023-03-20T22:26:20.997Z,11.80
2023-03-20T22:31:50.796Z,11.70
2023-03-20T22:40:27.234Z,10.50
2023-03-20T22:42:49.616Z,11.48
2023-03-20T22:45:05.577Z,11.10
2023-03-20T22:47:32.403Z,12.77
2023-03-20T22:49:58.946Z,12.93
2023-03-20T22:52:38.003Z,12.55
2023-03-20T22:55:12.083Z,12.25
2023-03-20T22:57:45.693Z,13.02
2023-03-20T23:00:17.783Z,12.93
2023-03-20T23:02:44.730Z,13.32
2023-03-20T23:05:11.831Z,13.15
2023-03-20T23:07:38.658Z,12.73
2023-03-20T23:10:06.495Z,14.25
2023-03-20T23:12:33.434Z,12.68
2023-03-20T23:15:00.380Z,13.02
2023-03-20T23:17:27.201Z,13.48
2023-03-20T23:20:05.311Z,12.43
2023-03-20T23:22:38.323Z,12.38
2023-03-20T23:25:13.387Z,11.88
2023-03-20T23:27:44.995Z,12.60
2023-03-20T23:30:12.065Z,12.20
2023-03-20T23:32:39.815Z,14.18
2023-03-20T23:35:07.687Z,14.25
2023-03-20T23:37:34.921Z,14.13
2023-03-20T23:40:01.427Z,17.98
2023-03-20T23:42:30.931Z,14.32
2023-03-20T23:45:04.341Z,14.52
2023-03-20T23:47:44.880Z,13.65
2023-03-20T23:50:20.682Z,15.93
2023-03-20T23:53:01.054Z,14.43
2023-03-20T23:55:30.515Z,13.80
2023-03-20T23:57:57.073Z,14.82
